createdAt,value
2018-09-22T00:04:11.685Z,61.89
2018-09-22T00:09:07.341Z,61.09
2018-09-22T00:13:59.921Z,61.29
2018-09-22T00:18:52.458Z,60.99
2018-09-22T00:23:45.165Z,61.58
2018-09-22T00:28:37.755Z,62.39
2018-09-22T00:33:30.317Z,62.74
2018-09-22T00:38:22.897Z,63.64
2018-09-22T00:43:15.509Z,62.27
2018-09-22T00:48:08.068Z,62.68
2018-09-22T00:53:00.625Z,62.88
2018-09-22T00:57:53.260Z,62.57
2018-09-22T01:02:45.782Z,61.85
2018-09-22T01:07:38.337Z,62.25
2018-09-22T01:12:30.994Z,61.86
2018-09-22T01:17:23.732Z,61.66
2018-09-22T01:22:16.354Z,61.86
2018-09-22T01:27:08.922Z,61.91
2018-09-22T01:32:01.821Z,62.22
2018-09-22T01:36:54.381Z,61.86
2018-09-22T01:41:47.158Z,61.22
2018-09-22T01:46:39.735Z,61.15
2018-09-22T01:51:33.036Z,61.10
2018-09-22T01:56:25.582Z,61.60
2018-09-22T02:01:18.407Z,62.25
2018-09-22T02:06:11.039Z,62.08
2018-09-22T02:11:03.619Z,63.00
2018-09-22T02:15:56.359Z,63.12
2018-09-22T02:20:48.914Z,64.40
2018-09-22T02:25:41.637Z,64.12
2018-09-22T02:30:34.195Z,64.23
2018-09-22T02:35:26.778Z,64.25
2018-09-22T02:40:19.356Z,64.23
2018-09-22T02:45:11.944Z,64.04
2018-09-22T02:50:04.764Z,64.25
2018-09-22T02:54:57.367Z,64.09
2018-09-22T02:59:50.024Z,64.86
2018-09-22T03:04:42.644Z,64.12
2018-09-22T03:09:35.250Z,64.86
2018-09-22T03:14:27.860Z,64.77
2018-09-22T03:19:20.419Z,64.74
2018-09-22T03:24:13.030Z,65.10
2018-09-22T03:29:05.678Z,65.15
2018-09-22T03:33:58.240Z,65.57
2018-09-22T03:38:50.910Z,65.80
2018-09-22T03:43:43.545Z,65.48
2018-09-22T03:48:36.204Z,65.91
2018-09-22T03:53:28.805Z,64.94
2018-09-22T03:58:21.409Z,65.46
2018-09-22T04:03:14.017Z,65.46
2018-09-22T04:08:06.727Z,65.23
2018-09-22T04:12:59.443Z,65.27
2018-09-22T04:17:52.070Z,65.21
2018-09-22T04:22:44.690Z,65.43
2018-09-22T04:27:37.344Z,65.31
2018-09-22T04:32:29.986Z,65.19
2018-09-22T04:37:22.542Z,65.34
2018-09-22T04:42:15.100Z,66.00
2018-09-22T04:47:07.662Z,66.16
2018-09-22T04:52:00.487Z,65.75
2018-09-22T04:56:53.552Z,65.56
2018-09-22T05:01:46.096Z,65.68
2018-09-22T05:06:38.716Z,65.40
2018-09-22T05:11:31.271Z,65.22
2018-09-22T05:16:23.928Z,65.92
2018-09-22T05:21:16.497Z,66.74
2018-09-22T05:26:09.079Z,67.44
2018-09-22T05:31:01.728Z,67.59
2018-09-22T05:35:54.331Z,68.57
2018-09-22T05:40:46.903Z,68.92
2018-09-22T05:45:39.523Z,69.53
2018-09-22T05:50:32.103Z,70.02
2018-09-22T05:55:24.727Z,70.35
2018-09-22T06:00:17.263Z,70.77
2018-09-22T06:05:09.970Z,70.83
2018-09-22T06:10:02.688Z,70.79
2018-09-22T06:14:55.259Z,70.59
2018-09-22T06:19:47.831Z,70.75
2018-09-22T06:24:40.623Z,69.99
2018-09-22T06:29:33.681Z,70.88
2018-09-22T06:34:26.699Z,71.09
2018-09-22T06:39:19.568Z,70.94
2018-09-22T06:44:12.564Z,70.62
2018-09-22T06:49:05.362Z,70.26
2018-09-22T06:53:58.303Z,70.30
2018-09-22T06:58:51.180Z,69.68
2018-09-22T07:03:44.070Z,68.29
2018-09-22T07:08:36.667Z,67.38
2018-09-22T07:13:29.218Z,67.70
2018-09-22T07:18:21.816Z,67.72
2018-09-22T07:23:15.892Z,66.19
2018-09-22T07:28:08.555Z,66.15
2018-09-22T07:33:01.283Z,65.17
2018-09-22T07:37:53.950Z,65.76
2018-09-22T07:42:46.542Z,66.14
2018-09-22T07:47:39.120Z,65.30
2018-09-22T07:52:31.718Z,65.89
2018-09-22T07:57:24.335Z,65.21
2018-09-22T08:02:17.062Z,65.83
2018-09-22T08:07:09.690Z,65.56
2018-09-22T08:12:02.353Z,65.99
2018-09-22T08:16:55.004Z,65.20
2018-09-22T08:21:47.534Z,65.05
2018-09-22T08:26:40.090Z,64.56
2018-09-22T08:31:33.230Z,64.92
2018-09-22T08:36:26.040Z,65.05
2018-09-22T08:41:18.454Z,64.94
2018-09-22T08:46:11.052Z,64.32
2018-09-22T08:51:03.719Z,63.21
2018-09-22T08:55:56.283Z,61.49
2018-09-22T09:00:48.888Z,61.48
2018-09-22T09:05:41.448Z,59.80
2018-09-22T09:10:34.150Z,60.10
2018-09-22T09:15:27.071Z,58.93
2018-09-22T09:20:19.799Z,58.60
2018-09-22T09:25:12.631Z,57.42
2018-09-22T09:30:05.457Z,57.84
2018-09-22T09:34:58.350Z,57.32
2018-09-22T09:39:51.164Z,56.28
2018-09-22T09:44:44.329Z,56.18
2018-09-22T09:49:37.054Z,57.01
2018-09-22T09:54:29.911Z,56.73
2018-09-22T09:59:22.660Z,55.54
2018-09-22T10:04:15.459Z,54.82
2018-09-22T10:09:09.051Z,53.70
2018-09-22T10:14:01.905Z,54.19
2018-09-22T10:18:54.658Z,54.55
2018-09-22T10:23:47.275Z,54.72
2018-09-22T10:28:39.884Z,54.55
2018-09-22T10:33:32.481Z,53.90
2018-09-22T10:38:25.034Z,53.19
2018-09-22T10:43:17.591Z,52.18
2018-09-22T10:48:10.132Z,52.15
2018-09-22T10:53:02.804Z,52.76
2018-09-22T10:57:55.533Z,53.27
2018-09-22T11:02:48.156Z,53.66
2018-09-22T11:07:40.799Z,52.18
2018-09-22T11:12:33.385Z,50.84
2018-09-22T11:17:26.188Z,49.74
2018-09-22T11:23:43.608Z,49.79
2018-09-22T11:28:36.503Z,49.89
2018-09-22T11:33:29.215Z,49.45
2018-09-22T11:38:21.977Z,49.63
2018-09-22T11:43:14.734Z,52.66
2018-09-22T11:48:07.489Z,53.29
2018-09-22T11:58:07.316Z,48.88
2018-09-22T12:03:00.085Z,47.59
2018-09-22T12:07:52.865Z,46.79
2018-09-22T12:12:45.537Z,47.02
2018-09-22T12:17:38.506Z,47.64
2018-09-22T12:22:31.231Z,47.41
2018-09-22T12:27:24.128Z,47.33
2018-09-22T12:32:17.142Z,46.43
2018-09-22T12:37:09.903Z,45.78
2018-09-22T12:42:02.615Z,45.85
2018-09-22T12:46:55.532Z,42.77
2018-09-22T12:51:48.424Z,42.96
2018-09-22T12:56:41.077Z,42.63
2018-09-22T13:01:33.810Z,41.76
2018-09-22T13:06:26.487Z,41.61
2018-09-22T13:11:19.692Z,41.45
2018-09-22T13:16:13.398Z,41.47
2018-09-22T13:21:06.156Z,41.47
2018-09-22T13:25:58.876Z,41.54
2018-09-22T13:30:51.495Z,41.05
2018-09-22T13:35:44.286Z,41.20
2018-09-22T13:40:36.836Z,39.97
2018-09-22T13:45:29.398Z,39.70
2018-09-22T13:50:21.989Z,39.11
2018-09-22T13:55:14.594Z,39.77
2018-09-22T14:00:07.202Z,39.74
2018-09-22T14:04:59.875Z,40.33
2018-09-22T14:09:52.476Z,40.08
2018-09-22T14:14:45.042Z,39.19
2018-09-22T14:19:37.610Z,39.08
2018-09-22T14:24:30.184Z,39.48
2018-09-22T14:29:22.767Z,39.65
2018-09-22T14:34:15.487Z,38.82
2018-09-22T14:39:08.342Z,39.15
2018-09-22T14:44:01.022Z,39.32
2018-09-22T14:48:53.591Z,39.26
2018-09-22T14:53:46.625Z,39.83
2018-09-22T14:58:39.221Z,39.51
2018-09-22T15:03:31.839Z,39.07
2018-09-22T15:08:24.452Z,38.83
2018-09-22T15:13:16.933Z,39.35
2018-09-22T15:18:09.508Z,38.97
2018-09-22T15:23:02.114Z,39.11
2018-09-22T15:27:54.703Z,39.39
2018-09-22T15:32:47.355Z,39.73
2018-09-22T15:37:40.014Z,39.11
2018-09-22T15:42:32.619Z,38.93
2018-09-22T15:47:25.187Z,39.34
2018-09-22T15:52:17.831Z,39.70
2018-09-22T15:57:10.445Z,39.12
2018-09-22T16:02:03.222Z,39.61
2018-09-22T16:06:55.987Z,38.99
2018-09-22T16:11:48.691Z,39.35
2018-09-22T16:16:41.282Z,40.01
2018-09-22T16:21:33.882Z,40.60
2018-09-22T16:26:26.575Z,39.97
2018-09-22T16:31:19.164Z,40.58
2018-09-22T16:36:11.765Z,41.31
2018-09-22T16:41:04.356Z,40.75
2018-09-22T16:45:56.963Z,41.23
2018-09-22T16:50:49.693Z,42.38
2018-09-22T16:55:42.226Z,42.49
2018-09-22T17:00:34.954Z,42.76
2018-09-22T17:05:27.483Z,42.71
2018-09-22T17:10:20.184Z,43.63
2018-09-22T17:15:12.894Z,43.53
2018-09-22T17:20:05.479Z,44.12
2018-09-22T17:24:57.993Z,44.12
2018-09-22T17:29:50.932Z,44.98
2018-09-22T17:34:43.526Z,44.48
2018-09-22T17:39:36.070Z,45.34
2018-09-22T17:44:28.742Z,45.21
2018-09-22T17:49:21.259Z,45.41
2018-09-22T17:54:14.084Z,45.63
2018-09-22T17:59:06.726Z,45.23
2018-09-22T18:03:59.393Z,45.77
2018-09-22T18:08:51.982Z,46.01
2018-09-22T18:13:44.548Z,46.48
2018-09-22T18:18:37.106Z,46.37
2018-09-22T18:23:29.792Z,45.97
2018-09-22T18:28:22.363Z,46.54
2018-09-22T18:33:15.058Z,47.14
2018-09-22T18:38:07.619Z,47.59
2018-09-22T18:43:00.216Z,48.08
2018-09-22T18:47:52.909Z,48.29
2018-09-22T18:52:45.482Z,48.63
2018-09-22T18:57:38.078Z,48.57
2018-09-22T19:02:30.610Z,49.65
2018-09-22T19:07:23.164Z,49.17
2018-09-22T19:12:15.758Z,49.34
2018-09-22T19:17:12.034Z,49.82
2018-09-22T19:22:06.515Z,50.74
2018-09-22T19:27:05.783Z,51.12
2018-09-22T19:32:02.077Z,51.08
2018-09-22T19:37:01.456Z,51.67
2018-09-22T19:41:57.043Z,52.24
2018-09-22T19:46:53.603Z,52.37
2018-09-22T19:51:51.570Z,53.02
2018-09-22T19:56:44.147Z,53.21
2018-09-22T20:01:36.739Z,52.72
2018-09-22T20:06:29.311Z,53.19
2018-09-22T20:11:21.983Z,53.54
2018-09-22T20:16:14.573Z,53.53
2018-09-22T20:21:07.288Z,54.07
2018-09-22T20:25:59.944Z,55.42
2018-09-22T20:30:52.524Z,56.60
2018-09-22T20:35:45.201Z,57.91
2018-09-22T20:40:37.736Z,58.26
2018-09-22T20:45:30.323Z,59.41
2018-09-22T20:50:23.130Z,60.22
2018-09-22T20:55:15.989Z,60.97
2018-09-22T21:00:09.517Z,60.73
2018-09-22T21:05:02.180Z,61.15
2018-09-22T21:09:54.775Z,61.70
2018-09-22T21:14:47.487Z,62.10
2018-09-22T21:19:40.090Z,61.97
2018-09-22T21:24:32.685Z,62.17
2018-09-22T21:29:25.268Z,62.54
2018-09-22T21:34:17.937Z,61.36
2018-09-22T21:39:10.916Z,62.39
2018-09-22T21:44:03.700Z,63.15
2018-09-22T21:48:56.343Z,63.69
2018-09-22T21:53:48.915Z,63.74
2018-09-22T21:58:41.485Z,64.09
2018-09-22T22:03:34.094Z,64.81
2018-09-22T22:08:26.822Z,65.13
2018-09-22T22:13:19.475Z,65.85
2018-09-22T22:18:12.078Z,65.73
2018-09-22T22:23:04.649Z,66.21
2018-09-22T22:27:57.311Z,66.23
2018-09-22T22:32:50.048Z,67.18
2018-09-22T22:37:42.813Z,67.42
2018-09-22T22:42:35.496Z,67.75
2018-09-22T22:47:28.329Z,67.80
2018-09-22T22:52:21.035Z,67.44
2018-09-22T22:57:13.707Z,68.15
2018-09-22T23:02:06.530Z,68.43
2018-09-22T23:06:59.159Z,69.28
2018-09-22T23:11:51.841Z,69.38
2018-09-22T23:16:44.506Z,69.60
2018-09-22T23:21:37.129Z,69.47
2018-09-22T23:26:29.875Z,70.28
2018-09-22T23:31:22.483Z,70.24
2018-09-22T23:36:15.099Z,70.45
2018-09-22T23:41:07.763Z,70.97
2018-09-22T23:46:00.379Z,70.83
2018-09-22T23:50:53.016Z,71.25
2018-09-22T23:55:45.579Z,71.38
